createdAt,value
2022-12-05T00:02:26.400Z,4.10
2022-12-05T00:04:55.509Z,4.10
2022-12-05T00:07:26.479Z,4.60
2022-12-05T00:09:56.482Z,3.63
2022-12-05T00:12:26.036Z,3.50
2022-12-05T00:14:56.697Z,3.97
2022-12-05T00:17:26.532Z,4.43
2022-12-05T00:19:57.091Z,3.25
2022-12-05T00:22:27.160Z,3.80
2022-12-05T00:24:56.436Z,3.80
2022-12-05T00:27:25.655Z,3.45
2022-12-05T00:29:56.953Z,3.70
2022-12-05T00:32:26.417Z,4.60
2022-12-05T00:34:55.874Z,4.05
2022-12-05T00:37:25.435Z,4.10
2022-12-05T00:39:54.984Z,4.25
2022-12-05T00:42:25.163Z,3.72
2022-12-05T00:44:54.472Z,4.30
2022-12-05T00:47:25.475Z,3.90
2022-12-05T00:49:54.913Z,4.15
2022-12-05T00:52:24.435Z,4.15
2022-12-05T00:54:53.663Z,4.68
2022-12-05T00:57:23.415Z,4.57
2022-12-05T00:59:53.151Z,3.95
2022-12-05T01:02:22.846Z,3.08
2022-12-05T01:04:53.365Z,4.07
2022-12-05T01:07:22.505Z,3.38
2022-12-05T01:09:51.613Z,4.70
2022-12-05T01:12:21.012Z,3.83
2022-12-05T01:14:50.377Z,3.63
2022-12-05T01:17:19.823Z,4.53
2022-12-05T01:19:49.219Z,4.20
2022-12-05T01:22:19.696Z,4.28
2022-12-05T01:24:48.935Z,4.45
2022-12-05T01:27:18.297Z,4.55
2022-12-05T01:29:47.637Z,4.65
2022-12-05T01:32:16.610Z,4.32
2022-12-05T01:34:46.431Z,3.13
2022-12-05T01:37:15.810Z,3.72
2022-12-05T01:39:46.508Z,4.50
2022-12-05T01:42:15.602Z,4.20
2022-12-05T01:45:07.773Z,4.35
2022-12-05T01:47:38.613Z,4.25
2022-12-05T01:50:09.414Z,3.13
2022-12-05T01:52:39.756Z,3.83
2022-12-05T01:55:14.220Z,3.83
2022-12-05T01:57:44.054Z,4.30
2022-12-05T02:00:17.167Z,3.70
2022-12-05T02:02:50.747Z,3.58
2022-12-05T02:05:23.554Z,3.70
2022-12-05T02:07:53.707Z,4.10
2022-12-05T02:10:25.400Z,4.72
2022-12-05T02:13:01.727Z,4.47
2022-12-05T02:15:43.212Z,3.80
2022-12-05T02:18:29.997Z,4.05
2022-12-05T02:21:15.764Z,3.70
2022-12-05T02:24:13.176Z,3.85
2022-12-05T02:27:01.744Z,4.32
2022-12-05T02:30:12.518Z,4.20
2022-12-05T02:33:07.342Z,4.32
2022-12-05T02:35:43.382Z,3.97
2022-12-05T02:38:26.288Z,4.00
2022-12-05T02:41:04.613Z,4.78
2022-12-05T02:43:40.341Z,4.07
2022-12-05T02:46:12.885Z,4.05
2022-12-05T02:48:46.753Z,4.57
2022-12-05T02:51:21.412Z,4.40
2022-12-05T02:53:51.939Z,4.00
2022-12-05T02:56:22.007Z,3.35
2022-12-05T02:58:55.246Z,4.30
2022-12-05T03:01:30.505Z,4.13
2022-12-05T03:04:04.179Z,3.58
2022-12-05T03:09:09.141Z,3.38
2022-12-05T03:14:16.300Z,5.10
2022-12-05T03:16:52.159Z,3.97
2022-12-05T03:19:28.308Z,3.97
2022-12-05T03:22:02.998Z,3.83
2022-12-05T03:24:36.530Z,3.67
2022-12-05T03:27:12.463Z,5.03
2022-12-05T03:29:50.446Z,4.68
2022-12-05T03:32:26.549Z,3.20
2022-12-05T03:35:08.231Z,3.90
2022-12-05T03:37:47.779Z,5.43
2022-12-05T03:40:27.853Z,4.40
2022-12-05T03:43:09.435Z,4.03
2022-12-05T03:45:48.326Z,4.38
2022-12-05T03:48:24.689Z,4.28
2022-12-05T03:50:57.616Z,4.93
2022-12-05T03:53:30.320Z,3.40
2022-12-05T03:56:05.475Z,3.88
2022-12-05T03:58:40.091Z,5.00
2022-12-05T04:01:12.041Z,4.32
2022-12-05T04:03:45.142Z,4.22
2022-12-05T04:06:25.112Z,5.53
2022-12-05T04:08:59.174Z,3.63
2022-12-05T04:11:33.067Z,5.20
2022-12-05T04:14:07.774Z,4.93
2022-12-05T04:17:00.371Z,3.83
2022-12-05T04:19:54.120Z,4.57
2022-12-05T04:22:25.500Z,4.45
2022-12-05T04:25:15.086Z,3.92
2022-12-05T04:27:52.737Z,4.22
2022-12-05T04:30:24.776Z,3.42
2022-12-05T04:33:04.216Z,4.97
2022-12-05T04:35:38.238Z,4.45
2022-12-05T04:38:13.266Z,3.72
2022-12-05T04:40:50.084Z,4.57
2022-12-05T04:43:21.418Z,4.28
2022-12-05T04:45:53.654Z,4.00
2022-12-05T04:48:26.742Z,4.65
2022-12-05T04:50:57.908Z,4.07
2022-12-05T04:53:32.556Z,4.15
2022-12-05T04:56:03.860Z,4.20
2022-12-05T04:58:35.414Z,4.47
2022-12-05T05:01:09.326Z,4.45
2022-12-05T05:03:47.449Z,4.13
2022-12-05T05:06:18.414Z,4.68
2022-12-05T05:08:52.075Z,4.40
2022-12-05T05:11:24.388Z,4.82
2022-12-05T05:13:54.560Z,3.50
2022-12-05T05:16:26.392Z,3.75
2022-12-05T05:18:56.146Z,5.07
2022-12-05T05:21:28.359Z,5.00
2022-12-05T05:24:00.125Z,5.03
2022-12-05T05:26:30.737Z,4.75
2022-12-05T05:29:00.422Z,4.97
2022-12-05T05:31:32.582Z,4.63
2022-12-05T05:34:07.623Z,3.97
2022-12-05T05:36:45.479Z,3.65
2022-12-05T05:39:17.980Z,4.22
2022-12-05T05:41:47.245Z,3.97
2022-12-05T05:44:16.786Z,4.78
2022-12-05T05:46:46.316Z,4.57
2022-12-05T05:49:15.998Z,4.32
2022-12-05T05:51:45.293Z,5.40
2022-12-05T05:54:16.210Z,4.40
2022-12-05T05:56:45.790Z,5.00
2022-12-05T05:59:15.246Z,5.78
2022-12-05T06:01:45.179Z,4.28
2022-12-05T06:04:15.246Z,4.70
2022-12-05T06:06:45.923Z,5.40
2022-12-05T06:09:16.895Z,4.88
2022-12-05T06:11:47.370Z,5.30
2022-12-05T06:14:17.403Z,5.28
2022-12-05T06:16:48.408Z,6.85
2022-12-05T06:21:51.436Z,4.80
2022-12-05T06:24:28.130Z,7.18
2022-12-05T06:29:33.835Z,4.95
2022-12-05T06:32:06.545Z,5.90
2022-12-05T06:34:35.937Z,4.85
2022-12-05T06:37:08.666Z,6.75
2022-12-05T06:39:40.014Z,6.55
2022-12-05T06:42:09.995Z,6.05
2022-12-05T06:44:41.571Z,6.80
2022-12-05T06:47:11.311Z,6.13
2022-12-05T06:49:40.652Z,6.57
2022-12-05T06:52:10.463Z,5.97
2022-12-05T06:54:41.145Z,6.75
2022-12-05T06:57:11.050Z,6.70
2022-12-05T06:59:40.610Z,6.82
2022-12-05T07:02:15.151Z,6.82
2022-12-05T07:04:44.618Z,5.65
2022-12-05T07:07:16.194Z,7.18
2022-12-05T07:09:48.669Z,6.47
2022-12-05T07:12:20.008Z,5.93
2022-12-05T07:14:50.254Z,10.15
2022-12-05T07:17:21.506Z,6.70
2022-12-05T07:19:51.526Z,5.97
2022-12-05T07:22:22.568Z,6.90
2022-12-05T07:24:54.395Z,6.03
2022-12-05T07:27:27.634Z,7.10
2022-12-05T07:29:58.047Z,5.93
2022-12-05T07:32:28.044Z,9.35
2022-12-05T07:34:57.558Z,6.10
2022-12-05T07:37:26.912Z,6.43
2022-12-05T07:39:58.373Z,6.38
2022-12-05T07:42:28.018Z,7.18
2022-12-05T07:44:57.774Z,6.22
2022-12-05T07:47:27.766Z,7.53
2022-12-05T10:45:59.855Z,10.10
2022-12-05T10:48:58.710Z,10.18
2022-12-05T10:51:34.215Z,8.32
2022-12-05T10:54:18.448Z,10.18
2022-12-05T10:56:49.380Z,10.18
2022-12-05T10:59:21.277Z,9.23
2022-12-05T11:01:55.148Z,9.77
2022-12-05T11:04:31.515Z,9.70
2022-12-05T11:07:02.556Z,9.48
2022-12-05T11:09:40.353Z,10.10
2022-12-05T11:12:19.502Z,9.48
2022-12-05T11:15:01.026Z,10.32
2022-12-05T11:17:35.612Z,9.02
2022-12-05T11:20:27.966Z,10.02
2022-12-05T11:23:01.411Z,8.57
2022-12-05T11:25:37.473Z,8.70
2022-12-05T11:28:34.209Z,10.20
2022-12-05T11:31:05.413Z,8.30
2022-12-05T11:33:37.538Z,9.88
2022-12-05T11:36:14.543Z,8.00
2022-12-05T11:38:44.032Z,9.13
2022-12-05T11:41:36.339Z,9.40
2022-12-05T11:44:24.418Z,9.30
2022-12-05T11:47:06.681Z,8.20
2022-12-05T11:49:55.598Z,10.07
2022-12-05T11:52:40.674Z,9.68
2022-12-05T11:55:17.871Z,10.50
2022-12-05T11:58:11.427Z,8.15
2022-12-05T12:00:56.219Z,7.72
2022-12-05T12:03:45.703Z,7.82
2022-12-05T12:06:48.201Z,10.45
2022-12-05T12:09:33.508Z,8.18
2022-12-05T12:12:11.052Z,9.45
2022-12-05T12:15:00.038Z,9.38
2022-12-05T12:17:42.871Z,9.93
2022-12-05T12:20:35.216Z,9.93
2022-12-05T12:23:27.822Z,7.68
2022-12-05T12:26:12.452Z,9.05
2022-12-05T12:28:47.956Z,8.77
2022-12-05T12:31:36.308Z,9.18
2022-12-05T12:34:38.792Z,8.10
2022-12-05T12:37:18.284Z,7.53
2022-12-05T12:39:54.741Z,9.57
2022-12-05T12:42:32.640Z,9.73
2022-12-05T12:45:27.325Z,9.02
2022-12-05T12:48:20.200Z,8.82
2022-12-05T12:50:54.099Z,8.15
2022-12-05T12:53:57.352Z,9.10
2022-12-05T12:56:39.109Z,8.52
2022-12-05T12:59:24.510Z,8.82
2022-12-05T13:01:59.904Z,8.73
2022-12-05T13:04:40.637Z,10.05
2022-12-05T13:07:15.428Z,10.70
2022-12-05T13:09:54.347Z,8.20
2022-12-05T13:12:31.964Z,10.10
2022-12-05T13:15:10.101Z,9.10
2022-12-05T13:17:43.042Z,11.00
2022-12-05T13:20:18.744Z,8.57
2022-12-05T13:22:50.749Z,9.23
2022-12-05T13:25:28.616Z,9.32
2022-12-05T13:28:04.384Z,8.50
2022-12-05T13:30:57.027Z,10.25
2022-12-05T13:33:28.684Z,8.40
2022-12-05T13:36:21.479Z,9.57
2022-12-05T13:39:08.604Z,10.07
2022-12-05T13:42:02.553Z,9.40
2022-12-05T13:44:39.069Z,9.07
2022-12-05T13:47:16.861Z,9.48
2022-12-05T13:49:51.019Z,7.70
2022-12-05T13:52:27.139Z,8.85
2022-12-05T13:55:04.172Z,8.00
2022-12-05T13:57:54.052Z,9.90
2022-12-05T14:00:31.905Z,9.25
2022-12-05T14:03:16.329Z,8.65
2022-12-05T14:05:51.758Z,10.27
2022-12-05T14:09:04.849Z,9.88
2022-12-05T14:11:34.368Z,9.18
2022-12-05T14:14:04.838Z,10.65
2022-12-05T14:16:46.349Z,10.40
2022-12-05T14:19:37.253Z,9.90
2022-12-05T14:22:29.778Z,10.25
2022-12-05T14:25:07.911Z,10.80
2022-12-05T14:27:50.835Z,9.88
2022-12-05T14:30:25.076Z,10.75
2022-12-05T14:32:56.400Z,12.00
2022-12-05T14:35:31.131Z,11.55
2022-12-05T14:38:03.833Z,11.13
2022-12-05T14:40:35.489Z,11.18
2022-12-05T14:43:07.387Z,10.80
2022-12-05T14:45:39.532Z,12.27
2022-12-05T14:48:30.743Z,14.52
2022-12-05T14:51:04.855Z,10.68
2022-12-05T14:53:39.680Z,11.05
2022-12-05T14:56:18.684Z,9.02
2022-12-05T14:58:52.003Z,9.63
2022-12-05T15:01:24.935Z,7.65
2022-12-05T15:04:17.492Z,10.00
2022-12-05T15:06:50.291Z,9.25
2022-12-05T15:09:51.005Z,9.20
2022-12-05T15:12:24.152Z,8.48
2022-12-05T15:15:02.110Z,10.13
2022-12-05T15:17:39.117Z,8.43
2022-12-05T15:20:18.021Z,8.55
2022-12-05T15:22:48.196Z,8.32
2022-12-05T15:25:24.434Z,8.45
2022-12-05T15:27:59.469Z,8.25
2022-12-05T15:30:30.474Z,8.65
2022-12-05T15:33:01.009Z,7.43
2022-12-05T15:35:35.417Z,8.00
2022-12-05T15:38:10.708Z,7.68
2022-12-05T15:40:39.810Z,7.65
2022-12-05T15:43:32.348Z,8.38
2022-12-05T15:46:24.095Z,8.50
2022-12-05T15:48:55.229Z,7.82
2022-12-05T15:51:32.271Z,9.95
2022-12-05T15:54:08.942Z,7.82
2022-12-05T15:56:43.593Z,7.72
2022-12-05T15:59:20.088Z,8.50
2022-12-05T16:01:56.424Z,7.93
2022-12-05T16:04:36.131Z,7.93
2022-12-05T16:07:09.915Z,8.10
2022-12-05T16:12:40.079Z,8.18
2022-12-05T19:19:00.816Z,7.88
2022-12-05T19:21:33.612Z,7.88
2022-12-05T19:24:07.564Z,7.95
2022-12-05T19:26:39.313Z,8.70
2022-12-05T19:29:15.902Z,7.38
2022-12-05T19:31:47.698Z,8.95
2022-12-05T19:34:21.878Z,8.68
2022-12-05T19:36:59.987Z,7.57
2022-12-05T19:39:33.309Z,9.80
2022-12-05T19:42:08.449Z,7.70
2022-12-05T19:44:38.630Z,8.07
2022-12-05T19:47:09.204Z,8.30
2022-12-05T19:49:46.090Z,7.68
2022-12-05T19:53:14.208Z,8.95
2022-12-05T19:55:51.718Z,8.40
2022-12-05T19:58:25.854Z,6.90
2022-12-05T20:02:19.602Z,7.30
2022-12-05T20:05:47.897Z,7.38
2022-12-05T20:08:43.374Z,7.18
2022-12-05T20:11:33.768Z,7.00
2022-12-05T20:14:07.386Z,7.63
2022-12-05T20:21:44.891Z,7.68
2022-12-05T20:24:18.509Z,7.22
2022-12-05T20:26:54.241Z,8.45
2022-12-05T20:29:34.129Z,6.70
2022-12-05T20:32:11.655Z,8.43
2022-12-05T20:34:59.592Z,7.20
2022-12-05T20:37:35.743Z,4.47
2022-12-05T20:40:08.743Z,6.45
2022-12-05T20:42:46.621Z,7.47
2022-12-05T20:45:17.307Z,7.53
2022-12-05T20:47:51.756Z,6.90
2022-12-05T20:50:25.095Z,7.40
2022-12-05T20:53:01.565Z,6.72
2022-12-05T20:55:36.228Z,7.75
2022-12-05T20:58:11.081Z,7.63
2022-12-05T21:00:51.001Z,6.18
2022-12-05T21:03:21.260Z,6.13
2022-12-05T21:05:56.857Z,7.57
2022-12-05T21:08:29.887Z,7.18
2022-12-05T21:10:59.604Z,7.72
2022-12-05T21:13:33.133Z,6.88
2022-12-05T21:16:07.846Z,8.02
2022-12-05T21:18:39.899Z,7.47
2022-12-05T21:21:16.206Z,6.30
2022-12-05T21:23:51.011Z,7.40
2022-12-05T21:27:17.629Z,5.85
2022-12-05T21:29:47.957Z,7.50
2022-12-05T21:32:30.047Z,6.45
2022-12-05T21:35:03.913Z,7.38
2022-12-05T21:37:38.653Z,7.45
2022-12-05T21:40:22.281Z,6.97
2022-12-05T21:43:03.676Z,7.57
2022-12-05T21:45:43.348Z,8.38
2022-12-05T21:48:15.428Z,6.90
2022-12-05T21:50:47.580Z,6.18
2022-12-05T21:53:17.706Z,7.85
2022-12-05T21:55:52.324Z,7.47
2022-12-05T21:58:25.575Z,8.50
2022-12-05T22:00:59.384Z,7.22
2022-12-05T22:06:07.227Z,6.88
2022-12-05T22:08:41.014Z,7.80
2022-12-05T22:11:13.591Z,6.43
2022-12-05T22:13:44.758Z,8.00
2022-12-05T22:16:16.150Z,7.57
2022-12-05T22:18:46.494Z,7.40
2022-12-05T22:21:18.311Z,6.78
2022-12-05T22:23:53.054Z,7.38
2022-12-05T22:26:26.148Z,6.97
2022-12-05T22:28:57.475Z,9.13
2022-12-05T22:31:30.367Z,6.80
2022-12-05T22:34:00.985Z,8.45
2022-12-05T22:36:34.203Z,10.90
2022-12-05T22:39:04.721Z,8.45
2022-12-05T22:41:35.801Z,8.65
2022-12-05T22:44:05.528Z,8.18
2022-12-05T22:46:37.222Z,7.40
2022-12-05T22:49:06.723Z,9.45
2022-12-05T22:51:37.303Z,8.23
2022-12-05T22:54:10.542Z,8.00
2022-12-05T22:56:44.007Z,10.23
2022-12-05T22:59:14.947Z,9.18
2022-12-05T23:01:47.805Z,8.45
2022-12-05T23:04:17.672Z,8.93
2022-12-05T23:06:50.381Z,9.32
2022-12-05T23:09:20.719Z,7.70
2022-12-05T23:11:52.755Z,7.70
2022-12-05T23:14:25.655Z,8.93
2022-12-05T23:16:57.952Z,7.43
2022-12-05T23:19:27.690Z,9.23
2022-12-05T23:21:59.805Z,9.38
2022-12-05T23:24:32.635Z,9.35
2022-12-05T23:27:06.196Z,8.27
2022-12-05T23:29:36.022Z,7.95
2022-12-05T23:32:06.230Z,9.95
2022-12-05T23:34:35.786Z,10.25
2022-12-05T23:37:05.664Z,9.15
2022-12-05T23:39:35.150Z,9.52
2022-12-05T23:42:10.830Z,9.80
2022-12-05T23:44:46.213Z,8.50
2022-12-05T23:47:19.218Z,9.07
2022-12-05T23:49:49.756Z,9.60
2022-12-05T23:52:20.123Z,8.27
2022-12-05T23:54:50.198Z,9.68
2022-12-05T23:57:21.298Z,7.95
2022-12-05T23:59:51.634Z,9.00
